< < Back
Terminal Aerodrome Forecast


Current Version              Previous Versions:   1  2  3  4  5  6  7  8  9  

Terminal Aerodrome Forecast

260
FTUS44 KMRX 292328
TAFCHA
TAF
KCHA 292328Z 3000/3024 36007KT P6SM FEW060
     FM300500 01003KT P6SM SKC
     FM301500 02007KT P6SM FEW050=



Latest METAR

683
SAUS80 KWBC 302300 RRC
MTRCHA
METAR KCHA 302253Z 04008KT 10SM SCT050 SCT250 BKN300 27/10 A3007 RMK AO2
SLP175 T02670100


USA.gov is the U.S. government's official web portal to all federal, state and local government web resources and services.